Time;durP1;ratioP1;P1;durP2;ratioP2;P2;SDS_P1;SDS_P2;PMS_P1;PMS_P2;Temp;Humidity;BMP_temperature;BMP_pressure;BME280_temperature;BME280_humidity;BME280_pressure;Samples;Min_cycle;Max_cycle;Signal;HPM_P1;HPM_P2
2021/09/13 00:01:46;;;;;;;5.93;5.00;;;15.20;74.50;;;;;;5015202;28;20185;-81
2021/09/13 00:04:11;;;;;;;4.78;4.40;;;15.10;74.60;;;;;;5014973;28;20702;-80
2021/09/13 00:06:37;;;;;;;4.95;4.57;;;15.10;74.70;;;;;;5006921;28;20181;-80
2021/09/13 00:09:03;;;;;;;9.00;5.13;;;15.10;75.10;;;;;;5014171;28;20185;-81
2021/09/13 00:11:29;;;;;;;5.15;4.72;;;15.10;74.80;;;;;;5014632;28;20196;-79
2021/09/13 00:13:54;;;;;;;6.15;5.10;;;15.10;75.10;;;;;;5011848;28;20663;-80
2021/09/13 00:16:20;;;;;;;5.32;4.88;;;15.10;75.50;;;;;;5015173;28;20184;-81
2021/09/13 00:18:46;;;;;;;7.32;5.53;;;15.10;75.50;;;;;;5008547;28;20370;-80
2021/09/13 00:21:12;;;;;;;5.50;5.10;;;15.10;75.40;;;;;;5013844;28;20181;-81
2021/09/13 00:23:38;;;;;;;7.82;4.68;;;15.00;75.80;;;;;;5003255;28;20250;-80
2021/09/13 00:26:03;;;;;;;5.10;4.70;;;15.00;75.80;;;;;;5014762;28;20703;-80
2021/09/13 00:28:29;;;;;;;5.57;5.10;;;15.00;76.00;;;;;;5014024;28;20558;-80
2021/09/13 00:30:55;;;;;;;6.20;4.72;;;14.90;75.80;;;;;;5008295;28;20252;-81
2021/09/13 00:33:20;;;;;;;5.28;4.75;;;14.90;76.20;;;;;;5019387;28;20315;-81
2021/09/13 00:35:46;;;;;;;7.25;4.13;;;14.90;76.00;;;;;;5017263;28;20600;-80
2021/09/13 00:38:12;;;;;;;5.03;4.63;;;14.90;75.60;;;;;;5012824;28;20680;-80
2021/09/13 00:40:38;;;;;;;5.68;4.55;;;14.80;75.90;;;;;;5016262;28;20192;-80
2021/09/13 00:43:04;;;;;;;5.03;4.53;;;14.80;75.50;;;;;;5010304;28;20185;-80
2021/09/13 00:45:29;;;;;;;6.45;4.88;;;14.70;75.50;;;;;;5012438;28;20189;-80
2021/09/13 00:47:55;;;;;;;4.57;4.28;;;14.70;76.00;;;;;;5013959;28;20177;-81
2021/09/13 00:50:22;;;;;;;5.40;4.60;;;14.60;76.00;;;;;;5012247;28;20176;-80
2021/09/13 00:52:53;;;;;;;8.80;4.97;;;14.60;76.10;;;;;;5026269;28;20283;-80
2021/09/13 00:55:20;;;;;;;4.22;4.03;;;14.60;76.00;;;;;;5023099;28;20215;-80
2021/09/13 00:57:49;;;;;;;4.50;4.13;;;14.60;75.90;;;;;;5032047;28;20180;-80
2021/09/13 01:00:16;;;;;;;5.15;4.75;;;14.50;75.80;;;;;;5025025;28;20180;-80
2021/09/13 01:02:42;;;;;;;8.25;5.28;;;14.50;76.10;;;;;;5019345;28;20294;-80
2021/09/13 01:05:08;;;;;;;5.15;4.35;;;14.50;76.00;;;;;;5014620;28;20177;-80
2021/09/13 01:07:34;;;;;;;4.90;4.22;;;14.50;76.10;;;;;;5018590;28;20192;-79
2021/09/13 01:10:01;;;;;;;4.45;3.95;;;14.50;76.50;;;;;;5010775;28;20207;-80
2021/09/13 01:12:27;;;;;;;5.63;4.80;;;14.50;76.60;;;;;;5022695;28;20641;-81
2021/09/13 01:14:53;;;;;;;5.47;4.65;;;14.50;76.40;;;;;;5015670;28;20216;-81
2021/09/13 01:17:19;;;;;;;4.63;4.25;;;14.50;76.60;;;;;;5016588;28;20208;-81
2021/09/13 01:19:46;;;;;;;5.65;4.82;;;14.50;77.00;;;;;;5016277;28;20188;-81
2021/09/13 01:22:13;;;;;;;5.80;5.18;;;14.50;77.50;;;;;;5016865;28;20681;-81
2021/09/13 01:24:39;;;;;;;5.18;4.78;;;14.50;77.40;;;;;;5015210;28;20180;-81
2021/09/13 01:27:07;;;;;;;4.82;4.50;;;14.40;77.70;;;;;;5018716;28;20913;-81
2021/09/13 01:29:33;;;;;;;8.00;5.38;;;14.40;78.00;;;;;;5013919;28;20196;-81
2021/09/13 01:31:59;;;;;;;6.53;5.13;;;14.40;78.20;;;;;;5016887;28;20186;-81
2021/09/13 01:34:25;;;;;;;6.47;5.07;;;14.40;78.30;;;;;;5007601;28;20554;-80
2021/09/13 01:36:51;;;;;;;6.65;5.50;;;14.40;78.20;;;;;;5013302;28;20179;-81
2021/09/13 01:39:18;;;;;;;6.30;5.10;;;14.30;78.30;;;;;;5006487;28;20196;-81
2021/09/13 01:41:44;;;;;;;4.93;4.43;;;14.30;78.20;;;;;;5010502;28;20192;-80
2021/09/13 01:44:11;;;;;;;4.70;4.28;;;14.30;78.40;;;;;;5010067;28;20292;-80
2021/09/13 01:46:38;;;;;;;12.57;4.97;;;14.30;78.20;;;;;;5016831;28;20251;-81
2021/09/13 01:49:08;;;;;;;5.28;4.75;;;14.30;78.60;;;;;;5022185;28;20227;-81
2021/09/13 01:51:35;;;;;;;4.70;4.38;;;14.30;78.00;;;;;;5018993;28;20196;-81
2021/09/13 01:54:01;;;;;;;4.47;4.18;;;14.30;78.10;;;;;;5013949;28;20220;-80
2021/09/13 01:56:27;;;;;;;4.85;4.45;;;14.30;77.80;;;;;;5020953;28;20577;-81
2021/09/13 01:58:53;;;;;;;4.40;4.10;;;14.20;77.70;;;;;;5019625;28;20217;-80
2021/09/13 02:01:20;;;;;;;4.60;4.20;;;14.20;77.70;;;;;;5013134;28;20205;-80
2021/09/13 02:03:47;;;;;;;4.63;4.32;;;14.10;77.80;;;;;;5017104;28;20185;-81
2021/09/13 02:06:13;;;;;;;5.47;4.93;;;14.10;78.00;;;;;;5016698;28;20187;-81
2021/09/13 02:08:39;;;;;;;5.85;5.10;;;14.10;78.20;;;;;;5017421;28;20227;-80
2021/09/13 02:11:05;;;;;;;4.70;4.25;;;14.10;78.80;;;;;;5016271;28;20201;-79
2021/09/13 02:13:31;;;;;;;4.85;4.38;;;14.10;79.00;;;;;;5030009;28;20209;-80
2021/09/13 02:15:57;;;;;;;4.75;4.35;;;14.10;78.60;;;;;;5023060;28;20189;-82
2021/09/13 02:18:23;;;;;;;5.72;5.22;;;14.10;78.40;;;;;;5015305;28;20335;-81
2021/09/13 02:20:49;;;;;;;6.45;5.22;;;14.10;78.40;;;;;;5014509;28;20586;-80
2021/09/13 02:23:15;;;;;;;6.45;5.82;;;14.00;78.30;;;;;;5019265;28;20338;-79
2021/09/13 02:25:41;;;;;;;6.60;5.28;;;14.00;78.30;;;;;;5014502;28;20181;-80
2021/09/13 02:28:06;;;;;;;6.25;5.35;;;14.00;78.10;;;;;;5016975;28;20270;-79
2021/09/13 02:30:32;;;;;;;4.78;4.38;;;14.00;78.10;;;;;;5016657;28;20441;-81
2021/09/13 02:32:58;;;;;;;5.30;4.80;;;14.00;78.00;;;;;;5026380;28;20209;-81
2021/09/13 02:35:23;;;;;;;5.95;4.65;;;14.00;78.20;;;;;;5032509;28;20208;-81
2021/09/13 02:37:49;;;;;;;7.70;4.95;;;13.90;78.10;;;;;;5020680;28;20917;-81
2021/09/13 02:40:15;;;;;;;5.38;4.85;;;13.90;78.20;;;;;;5018139;28;20192;-81
2021/09/13 02:42:41;;;;;;;5.72;5.22;;;14.00;78.20;;;;;;5018082;28;20192;-81
2021/09/13 02:45:07;;;;;;;5.70;5.20;;;13.90;78.30;;;;;;5016974;28;20189;-81
2021/09/13 02:47:33;;;;;;;7.10;5.07;;;13.90;78.40;;;;;;5020091;28;20177;-82
2021/09/13 02:49:58;;;;;;;5.72;5.25;;;13.90;78.40;;;;;;5022081;28;20654;-80
2021/09/13 02:52:24;;;;;;;11.93;5.38;;;13.90;78.60;;;;;;5016801;28;20217;-80
2021/09/13 02:54:50;;;;;;;8.55;4.85;;;13.90;78.80;;;;;;5012680;28;20201;-80
2021/09/13 02:57:15;;;;;;;7.13;5.72;;;13.90;79.10;;;;;;5012384;28;21094;-80
2021/09/13 02:59:41;;;;;;;5.68;5.18;;;13.80;79.00;;;;;;5015790;28;20181;-81
2021/09/13 03:02:07;;;;;;;6.05;5.55;;;13.80;79.10;;;;;;5012688;28;20181;-80
2021/09/13 03:04:33;;;;;;;7.57;5.30;;;13.80;79.50;;;;;;5016068;28;20618;-80
2021/09/13 03:06:58;;;;;;;5.30;4.82;;;13.80;79.80;;;;;;5014505;28;20186;-81
2021/09/13 03:09:24;;;;;;;7.85;4.82;;;13.70;79.80;;;;;;5012077;28;20184;-81
2021/09/13 03:11:50;;;;;;;6.28;5.65;;;13.70;80.00;;;;;;5013828;28;20224;-81
2021/09/13 03:14:16;;;;;;;5.70;5.22;;;13.60;79.80;;;;;;5015454;28;20213;-81
2021/09/13 03:16:41;;;;;;;5.72;5.22;;;13.60;79.80;;;;;;5006956;28;20996;-81
2021/09/13 03:19:07;;;;;;;8.25;4.82;;;13.60;80.00;;;;;;5014008;28;20188;-79
2021/09/13 03:21:33;;;;;;;7.78;5.65;;;13.60;80.00;;;;;;4998828;28;20275;-81
2021/09/13 03:23:59;;;;;;;5.20;4.63;;;13.60;79.90;;;;;;5010080;28;20184;-81
2021/09/13 03:26:24;;;;;;;6.60;5.90;;;13.60;79.90;;;;;;5011138;28;20678;-81
2021/09/13 03:28:50;;;;;;;6.60;5.38;;;13.50;80.00;;;;;;5018691;28;20181;-81
2021/09/13 03:31:16;;;;;;;7.93;4.78;;;13.50;79.50;;;;;;5018000;28;20173;-80
2021/09/13 03:33:42;;;;;;;6.78;5.20;;;13.50;79.70;;;;;;5014880;28;20243;-80
2021/09/13 03:36:07;;;;;;;10.27;5.53;;;13.50;79.50;;;;;;5016215;28;20638;-80
2021/09/13 03:38:33;;;;;;;5.53;4.95;;;13.50;79.50;;;;;;5022148;28;20303;-79
2021/09/13 03:41:00;;;;;;;6.10;4.47;;;13.50;79.80;;;;;;5016664;28;20181;-79
2021/09/13 03:43:25;;;;;;;7.88;5.43;;;13.50;79.70;;;;;;5015058;28;20199;-78
2021/09/13 03:45:51;;;;;;;5.30;4.82;;;13.50;80.20;;;;;;5021375;28;20185;-79
2021/09/13 03:48:17;;;;;;;5.43;4.90;;;13.50;79.80;;;;;;5019622;28;20188;-81
2021/09/13 03:50:42;;;;;;;6.07;5.55;;;13.40;79.70;;;;;;5010493;28;20188;-81
2021/09/13 03:53:08;;;;;;;7.57;5.53;;;13.50;79.80;;;;;;5030207;28;20219;-80
2021/09/13 03:55:36;;;;;;;7.93;5.50;;;13.50;79.80;;;;;;5024332;28;20600;-82
2021/09/13 03:58:03;;;;;;;7.03;5.07;;;13.40;79.80;;;;;;5007830;28;20184;-82
2021/09/13 04:00:29;;;;;;;5.60;5.07;;;13.40;79.60;;;;;;5007541;28;20185;-82
2021/09/13 04:02:55;;;;;;;6.05;5.03;;;13.30;80.10;;;;;;5016221;28;20194;-81
2021/09/13 04:05:23;;;;;;;7.10;5.15;;;13.30;80.10;;;;;;5009199;28;20575;-81
2021/09/13 04:10:22;;;;;;;5.95;5.32;;;13.30;80.40;;;;;;5007174;28;20562;-82
2021/09/13 04:12:50;;;;;;;5.30;4.80;;;13.30;80.70;;;;;;5015055;28;20733;-81
2021/09/13 04:15:16;;;;;;;4.85;4.45;;;13.30;80.80;;;;;;5009850;28;20187;-81
2021/09/13 04:17:41;;;;;;;6.75;5.47;;;13.30;81.00;;;;;;5007764;28;20185;-82
2021/09/13 04:20:08;;;;;;;6.63;5.95;;;13.30;80.80;;;;;;5027475;28;20269;-80
2021/09/13 04:22:34;;;;;;;6.45;5.78;;;13.20;81.10;;;;;;5014683;28;20188;-77
2021/09/13 04:25:00;;;;;;;5.78;5.20;;;13.20;81.00;;;;;;5016617;28;20698;-77
2021/09/13 04:27:27;;;;;;;7.05;5.13;;;13.20;81.10;;;;;;5010312;28;20632;-77
2021/09/13 04:29:53;;;;;;;7.03;5.63;;;13.30;81.10;;;;;;5006863;28;20272;-77
2021/09/13 04:32:19;;;;;;;6.75;6.05;;;13.20;81.20;;;;;;5009335;28;20220;-77
2021/09/13 04:34:45;;;;;;;7.10;6.40;;;13.20;81.10;;;;;;5015612;28;20181;-76
2021/09/13 04:37:11;;;;;;;5.40;4.90;;;13.30;81.20;;;;;;5009436;28;20292;-76
2021/09/13 04:39:37;;;;;;;8.20;6.32;;;13.30;81.40;;;;;;5007423;28;20256;-76
2021/09/13 04:42:03;;;;;;;8.68;5.95;;;13.30;81.50;;;;;;5002789;28;20335;-76
2021/09/13 04:44:28;;;;;;;7.90;6.53;;;13.30;81.80;;;;;;5006991;28;20181;-77
2021/09/13 04:46:54;;;;;;;10.57;5.15;;;13.30;81.40;;;;;;5010603;28;20948;-77
2021/09/13 04:49:23;;;;;;;7.32;5.82;;;13.40;81.10;;;;;;5007074;28;20260;-77
2021/09/13 04:51:49;;;;;;;6.50;5.03;;;13.40;80.80;;;;;;5007890;28;20563;-76
2021/09/13 04:54:15;;;;;;;9.48;5.57;;;13.40;80.90;;;;;;5010394;28;20213;-81
2021/09/13 04:56:41;;;;;;;5.72;5.20;;;13.40;80.50;;;;;;5007762;28;20621;-81
2021/09/13 04:59:08;;;;;;;6.43;5.82;;;13.50;80.40;;;;;;5012252;28;20235;-78
2021/09/13 05:01:34;;;;;;;5.72;5.22;;;13.50;80.40;;;;;;5012390;28;20200;-77
2021/09/13 05:04:00;;;;;;;7.95;5.90;;;13.50;80.20;;;;;;5013917;28;20211;-78
2021/09/13 05:06:26;;;;;;;9.90;6.43;;;13.50;80.00;;;;;;5013577;28;20189;-77
2021/09/13 05:08:52;;;;;;;5.90;4.90;;;13.60;80.00;;;;;;5010327;28;20178;-79
2021/09/13 05:11:17;;;;;;;5.80;5.28;;;13.60;80.00;;;;;;5015870;28;20203;-76
2021/09/13 05:13:43;;;;;;;6.68;5.97;;;13.60;80.20;;;;;;5011243;28;20216;-76
2021/09/13 05:16:09;;;;;;;6.15;5.45;;;13.60;79.70;;;;;;5012888;28;20196;-76
2021/09/13 05:18:35;;;;;;;9.07;5.53;;;13.60;79.80;;;;;;5010742;28;20192;-76
2021/09/13 05:21:00;;;;;;;12.05;6.25;;;13.60;79.10;;;;;;5011922;28;20189;-76
2021/09/13 05:23:26;;;;;;;5.43;4.93;;;13.70;79.10;;;;;;5007986;28;20188;-76
2021/09/13 05:25:52;;;;;;;7.38;5.40;;;13.70;79.10;;;;;;5006015;28;20189;-78
2021/09/13 05:28:18;;;;;;;9.32;5.47;;;13.70;79.20;;;;;;5014403;28;20181;-76
2021/09/13 05:30:44;;;;;;;6.57;5.70;;;13.80;79.00;;;;;;5005908;28;20181;-76
2021/09/13 05:33:09;;;;;;;5.50;4.97;;;13.80;78.90;;;;;;5007249;28;20209;-74
2021/09/13 05:35:35;;;;;;;7.60;6.45;;;13.80;78.70;;;;;;5011670;28;20184;-75
2021/09/13 05:38:01;;;;;;;10.10;6.55;;;13.90;78.80;;;;;;5010109;28;20555;-76
2021/09/13 05:40:27;;;;;;;13.88;5.72;;;13.90;79.00;;;;;;5001656;28;20601;-76
2021/09/13 05:42:52;;;;;;;7.88;6.65;;;14.00;79.10;;;;;;5008449;28;20190;-77
2021/09/13 05:45:18;;;;;;;7.82;6.38;;;14.00;79.00;;;;;;5011995;28;20177;-77
2021/09/13 05:47:44;;;;;;;6.97;6.15;;;14.10;78.50;;;;;;5009380;28;20221;-77
2021/09/13 05:50:10;;;;;;;11.52;6.15;;;14.10;78.50;;;;;;5015534;28;20188;-76
2021/09/13 05:52:36;;;;;;;7.97;6.22;;;14.20;78.60;;;;;;5017387;28;20215;-77
2021/09/13 05:55:01;;;;;;;8.90;6.13;;;14.20;78.30;;;;;;5010122;28;20184;-77
2021/09/13 05:57:27;;;;;;;8.63;6.30;;;14.30;78.40;;;;;;5011517;28;20185;-77
2021/09/13 05:59:53;;;;;;;6.35;5.78;;;14.30;78.30;;;;;;5012642;28;20193;-77
2021/09/13 06:02:19;;;;;;;11.68;5.68;;;14.40;78.10;;;;;;5013424;28;20196;-77
2021/09/13 06:04:46;;;;;;;11.23;6.10;;;14.50;78.10;;;;;;5016835;28;21016;-77
2021/09/13 06:07:11;;;;;;;10.43;6.47;;;14.60;78.00;;;;;;5013235;28;20173;-77
2021/09/13 06:09:38;;;;;;;7.13;6.43;;;14.70;77.90;;;;;;5009560;28;20231;-77
2021/09/13 06:12:04;;;;;;;11.97;6.47;;;14.80;77.80;;;;;;5011851;28;20196;-77
2021/09/13 06:14:30;;;;;;;8.95;7.13;;;14.90;78.00;;;;;;5012580;28;20182;-77
2021/09/13 06:16:55;;;;;;;8.68;7.03;;;14.90;77.70;;;;;;5011100;28;20570;-77
2021/09/13 06:19:21;;;;;;;12.65;7.30;;;15.00;77.60;;;;;;5012615;28;20695;-76
2021/09/13 06:21:47;;;;;;;9.48;7.55;;;15.10;78.00;;;;;;5010233;28;20615;-77
2021/09/13 06:24:12;;;;;;;9.48;7.40;;;15.10;77.40;;;;;;5007717;28;20272;-77
2021/09/13 06:26:38;;;;;;;8.93;7.32;;;15.20;77.30;;;;;;5007929;28;20173;-76
2021/09/13 06:29:06;;;;;;;8.70;7.20;;;15.30;77.30;;;;;;5009739;28;20681;-76
2021/09/13 06:31:31;;;;;;;12.07;7.45;;;15.40;76.70;;;;;;5005010;28;20192;-76
2021/09/13 06:33:57;;;;;;;11.77;7.55;;;15.50;77.00;;;;;;5015682;28;20213;-76
2021/09/13 06:36:23;;;;;;;9.23;6.70;;;15.60;77.00;;;;;;5013228;28;20214;-76
2021/09/13 06:38:49;;;;;;;10.48;7.35;;;15.70;76.50;;;;;;5009855;28;20260;-77
2021/09/13 06:41:15;;;;;;;10.80;6.55;;;15.80;76.30;;;;;;5009460;28;20268;-77
2021/09/13 06:43:43;;;;;;;7.32;6.60;;;15.90;76.30;;;;;;5012190;28;20640;-76
2021/09/13 06:46:24;;;;;;;9.40;7.43;;;16.00;76.10;;;;;;5007723;28;20216;-76
2021/09/13 06:48:50;;;;;;;8.00;7.13;;;16.10;76.30;;;;;;5016155;28;20208;-78
2021/09/13 06:51:17;;;;;;;8.85;7.20;;;16.20;76.30;;;;;;5015794;28;20212;-77
2021/09/13 06:53:43;;;;;;;11.65;7.93;;;16.30;76.10;;;;;;5011735;28;21040;-75
2021/09/13 06:56:11;;;;;;;14.73;8.88;;;16.40;75.60;;;;;;5011547;28;20216;-75
2021/09/13 06:58:37;;;;;;;13.85;8.50;;;16.50;74.70;;;;;;5010011;28;20192;-75
2021/09/13 07:01:03;;;;;;;13.63;8.93;;;16.50;75.10;;;;;;5014539;28;20181;-77
2021/09/13 07:03:29;;;;;;;11.25;7.57;;;16.60;75.10;;;;;;5048589;28;20188;-78
2021/09/13 07:05:55;;;;;;;14.07;8.82;;;16.70;74.60;;;;;;5010022;28;20968;-76
2021/09/13 07:08:21;;;;;;;12.00;8.73;;;16.80;74.30;;;;;;5010284;28;20272;-76
2021/09/13 07:10:47;;;;;;;11.63;8.63;;;16.90;74.30;;;;;;5010692;28;20251;-76
2021/09/13 07:13:13;;;;;;;12.65;8.18;;;16.90;74.30;;;;;;5007673;28;20368;-77
2021/09/13 07:15:39;;;;;;;12.60;9.13;;;17.00;74.40;;;;;;5010376;28;20268;-76
2021/09/13 07:18:05;;;;;;;10.25;8.90;;;17.10;73.60;;;;;;5010687;28;20191;-76
2021/09/13 07:20:31;;;;;;;12.13;9.25;;;17.20;73.60;;;;;;5016207;28;20211;-74
2021/09/13 07:22:56;;;;;;;12.50;9.13;;;17.20;73.10;;;;;;5015545;28;20185;-75
2021/09/13 07:25:22;;;;;;;17.65;9.13;;;17.30;73.20;;;;;;5014266;28;20189;-76
2021/09/13 07:27:48;;;;;;;12.30;9.35;;;17.40;73.50;;;;;;5014588;28;20289;-77
2021/09/13 07:30:13;;;;;;;11.93;8.85;;;17.50;73.10;;;;;;5012997;28;20188;-77
2021/09/13 07:32:40;;;;;;;12.43;10.18;;;17.60;72.90;;;;;;5014501;28;20212;-77
2021/09/13 07:35:08;;;;;;;14.18;9.25;;;17.70;72.50;;;;;;5012276;28;20231;-77
2021/09/13 07:37:35;;;;;;;10.52;8.98;;;17.80;73.30;;;;;;5012290;28;20283;-76
2021/09/13 07:40:01;;;;;;;13.40;8.85;;;17.80;72.60;;;;;;5011636;28;20193;-76
2021/09/13 07:42:27;;;;;;;9.68;8.32;;;18.00;72.70;;;;;;5015770;28;20196;-76
2021/09/13 07:44:53;;;;;;;15.55;8.07;;;18.10;72.60;;;;;;5012426;28;20180;-76
2021/09/13 07:47:19;;;;;;;15.57;8.50;;;18.20;72.10;;;;;;5013240;28;20197;-75
2021/09/13 07:49:45;;;;;;;11.57;8.27;;;18.30;71.60;;;;;;5013616;28;20572;-75
2021/09/13 07:52:11;;;;;;;15.23;9.18;;;18.50;71.40;;;;;;5011145;28;20185;-77
2021/09/13 07:54:37;;;;;;;11.93;8.63;;;18.60;71.20;;;;;;5012745;28;20184;-75
2021/09/13 07:57:02;;;;;;;10.63;8.75;;;18.80;70.90;;;;;;5013294;28;20646;-76
2021/09/13 07:59:28;;;;;;;12.30;8.50;;;18.90;71.10;;;;;;5010831;28;20185;-76
2021/09/13 08:01:54;;;;;;;13.35;8.30;;;19.10;71.10;;;;;;5045004;28;20230;-76
2021/09/13 08:04:19;;;;;;;10.32;8.40;;;19.20;69.90;;;;;;5012399;28;20271;-76
2021/09/13 08:06:45;;;;;;;10.30;8.55;;;19.40;69.80;;;;;;5010147;28;20250;-76
2021/09/13 08:09:11;;;;;;;10.48;8.15;;;19.50;69.70;;;;;;5012750;28;20275;-76
2021/09/13 08:11:37;;;;;;;10.65;8.75;;;19.70;69.30;;;;;;5011156;28;20196;-75
2021/09/13 08:14:03;;;;;;;16.80;8.65;;;19.90;68.20;;;;;;5011474;28;20232;-75
2021/09/13 08:16:28;;;;;;;12.43;8.57;;;20.00;67.80;;;;;;5012744;28;20292;-76
2021/09/13 08:18:57;;;;;;;16.00;8.65;;;20.30;67.90;;;;;;5010037;28;20842;-75
2021/09/13 08:21:23;;;;;;;12.52;8.88;;;20.50;67.50;;;;;;5007175;28;20185;-76
2021/09/13 08:23:49;;;;;;;14.25;8.60;;;20.80;66.70;;;;;;5011284;28;20227;-75
2021/09/13 08:26:16;;;;;;;11.50;8.68;;;21.10;66.20;;;;;;5011521;28;20613;-75
2021/09/13 08:28:42;;;;;;;9.93;8.15;;;21.50;66.90;;;;;;5011178;28;20619;-76
2021/09/13 08:31:08;;;;;;;11.70;8.50;;;22.00;66.00;;;;;;5009621;28;20211;-76
2021/09/13 08:33:34;;;;;;;15.40;8.45;;;22.50;63.70;;;;;;5011603;28;20607;-76
2021/09/13 08:36:01;;;;;;;17.05;9.00;;;23.10;62.50;;;;;;5011269;28;20231;-76
2021/09/13 08:38:27;;;;;;;12.18;8.18;;;23.90;61.20;;;;;;5010962;28;21158;-76
2021/09/13 08:40:52;;;;;;;11.02;8.20;;;24.80;59.70;;;;;;5007314;28;21261;-76
2021/09/13 08:43:19;;;;;;;16.60;9.65;;;25.70;58.70;;;;;;5008603;28;20223;-76
2021/09/13 08:53:37;;;;;;;9.68;8.20;;;29.20;52.60;;;;;;5009463;28;20220;-76
2021/09/13 08:56:05;;;;;;;11.40;8.60;;;30.10;52.40;;;;;;5008354;28;20197;-76
2021/09/13 08:58:35;;;;;;;9.15;8.23;;;30.80;50.90;;;;;;5004706;28;20669;-76
2021/09/13 09:01:01;;;;;;;14.27;8.70;;;31.50;49.60;;;;;;5002307;28;20691;-75
2021/09/13 09:03:28;;;;;;;9.90;8.75;;;32.10;48.90;;;;;;5007438;28;20449;-75
2021/09/13 09:05:54;;;;;;;11.38;8.32;;;32.50;48.70;;;;;;5003397;28;20191;-75
2021/09/13 09:08:30;;;;;;;9.75;8.65;;;33.00;48.90;;;;;;5005723;28;20180;-75
2021/09/13 09:11:02;;;;;;;12.32;7.95;;;33.50;48.00;;;;;;5009774;28;20654;-75
2021/09/13 09:13:42;;;;;;;8.23;7.53;;;34.00;48.00;;;;;;5003930;28;20223;-75
2021/09/13 09:16:13;;;;;;;9.30;7.28;;;34.50;45.30;;;;;;5008138;28;20205;-75
2021/09/13 09:18:47;;;;;;;7.90;6.97;;;34.90;45.70;;;;;;5007771;28;20180;-75
2021/09/13 09:21:30;;;;;;;8.65;7.25;;;35.20;43.90;;;;;;5009294;28;20188;-75
2021/09/13 09:24:01;;;;;;;6.78;6.30;;;35.40;44.30;;;;;;5011753;28;20698;-75
2021/09/13 09:26:28;;;;;;;6.97;6.38;;;35.80;45.20;;;;;;5040412;28;20196;-75
2021/09/13 09:28:57;;;;;;;6.38;5.72;;;36.20;44.30;;;;;;5010728;28;20263;-75
2021/09/13 09:31:40;;;;;;;6.40;5.95;;;36.20;42.40;;;;;;5010961;28;20296;-75
2021/09/13 09:34:20;;;;;;;7.15;6.38;;;36.50;42.40;;;;;;5008573;28;20240;-75
2021/09/13 09:36:58;;;;;;;6.78;6.10;;;36.70;42.50;;;;;;5009930;28;20234;-75
2021/09/13 09:39:35;;;;;;;8.05;6.15;;;37.00;42.20;;;;;;5011398;28;20198;-75
2021/09/13 09:42:02;;;;;;;8.52;6.22;;;37.30;42.00;;;;;;5010094;28;20191;-75
2021/09/13 09:44:29;;;;;;;8.85;6.13;;;37.40;42.70;;;;;;5010786;28;20218;-75
2021/09/13 09:47:01;;;;;;;5.43;5.00;;;37.60;43.40;;;;;;5011782;28;20180;-75
2021/09/13 09:49:40;;;;;;;6.15;5.65;;;38.00;43.10;;;;;;5008291;28;20198;-75
2021/09/13 09:52:06;;;;;;;5.97;5.55;;;38.30;41.30;;;;;;5006667;28;20183;-75
2021/09/13 09:54:32;;;;;;;5.93;5.45;;;38.40;40.70;;;;;;5011537;28;20246;-75
2021/09/13 09:57:06;;;;;;;5.82;5.45;;;38.40;41.60;;;;;;5008192;28;20212;-75
2021/09/13 09:59:43;;;;;;;6.18;5.75;;;38.40;40.10;;;;;;5007664;28;20657;-75
2021/09/13 10:02:17;;;;;;;5.68;5.18;;;38.00;40.20;;;;;;5006114;28;20176;-75
2021/09/13 10:04:47;;;;;;;5.35;5.07;;;37.80;40.80;;;;;;5007055;28;20310;-75
2021/09/13 10:07:16;;;;;;;6.22;4.68;;;37.80;42.70;;;;;;5012900;28;20191;-73
2021/09/13 10:09:43;;;;;;;5.10;4.80;;;37.90;41.80;;;;;;5016789;28;20185;-74
2021/09/13 10:12:10;;;;;;;5.10;4.75;;;38.10;41.50;;;;;;5013321;28;20203;-75
2021/09/13 10:14:36;;;;;;;4.90;4.65;;;38.60;41.80;;;;;;5009047;28;20192;-75
2021/09/13 10:17:05;;;;;;;4.85;4.47;;;39.10;41.30;;;;;;5002266;28;20268;-75
2021/09/13 10:19:31;;;;;;;5.00;4.70;;;39.60;41.10;;;;;;4992179;28;20192;-75
2021/09/13 10:21:57;;;;;;;4.68;4.47;;;39.80;40.60;;;;;;4991611;28;20188;-75
2021/09/13 10:24:25;;;;;;;6.28;4.75;;;40.00;40.20;;;;;;4996901;28;20196;-75
2021/09/13 10:27:02;;;;;;;4.90;4.60;;;40.50;40.90;;;;;;4998639;28;20177;-74
2021/09/13 10:29:29;;;;;;;4.28;3.95;;;40.90;39.80;;;;;;5003276;28;20184;-75
2021/09/13 10:31:57;;;;;;;5.00;4.63;;;41.20;40.30;;;;;;4992190;28;20658;-75
2021/09/13 10:34:33;;;;;;;5.10;4.70;;;41.70;39.70;;;;;;4995193;28;20216;-75
2021/09/13 10:36:58;;;;;;;6.13;4.55;;;42.10;38.60;;;;;;4992488;28;20645;-75
2021/09/13 10:39:54;;;;;;;4.40;4.28;;;42.50;38.00;;;;;;4994526;28;20279;-75
2021/09/13 10:42:28;;;;;;;5.55;5.15;;;42.20;36.70;;;;;;5000441;28;20185;-75
2021/09/13 10:45:32;;;;;;;4.95;4.55;;;42.30;37.20;;;;;;5015088;28;20178;-75
2021/09/13 10:47:58;;;;;;;4.88;4.57;;;42.60;37.00;;;;;;4995228;28;20199;-75
2021/09/13 10:50:49;;;;;;;5.43;4.93;;;43.10;38.80;;;;;;4988660;28;20193;-75
2021/09/13 10:53:17;;;;;;;5.25;4.93;;;43.40;38.80;;;;;;4974370;28;20235;-75
2021/09/13 10:56:04;;;;;;;5.20;4.63;;;43.80;37.90;;;;;;4990674;28;20223;-77
2021/09/13 10:58:43;;;;;;;4.32;3.92;;;43.90;36.50;;;;;;4987407;28;20190;-74
2021/09/13 11:01:25;;;;;;;4.18;3.97;;;44.10;37.10;;;;;;4976951;28;20185;-76
2021/09/13 11:04:04;;;;;;;3.95;3.78;;;44.10;36.10;;;;;;4992533;28;20196;-76
2021/09/13 11:06:39;;;;;;;4.38;4.28;;;43.70;38.00;;;;;;4973342;28;20211;-76
2021/09/13 11:09:23;;;;;;;4.03;3.78;;;43.60;37.50;;;;;;4975513;28;20187;-77
2021/09/13 11:11:56;;;;;;;3.80;3.53;;;43.60;36.50;;;;;;4993149;28;20759;-77
2021/09/13 11:14:23;;;;;;;3.83;3.72;;;43.70;37.20;;;;;;4975582;28;20604;-77
2021/09/13 11:16:52;;;;;;;5.03;4.40;;;43.90;38.20;;;;;;4970888;28;20229;-77
2021/09/13 11:19:18;;;;;;;4.22;4.00;;;43.90;38.00;;;;;;4994641;28;20200;-76
2021/09/13 11:22:05;;;;;;;4.53;4.32;;;43.80;36.90;;;;;;4994075;28;20185;-77
2021/09/13 11:24:37;;;;;;;4.53;4.15;;;43.10;35.80;;;;;;4978098;28;20690;-77
2021/09/13 11:27:07;;;;;;;4.65;4.40;;;42.30;36.40;;;;;;4989505;28;20193;-76
2021/09/13 11:29:35;;;;;;;4.35;4.15;;;41.40;38.20;;;;;;4990032;28;20424;-76
2021/09/13 11:32:05;;;;;;;3.95;3.85;;;40.80;39.40;;;;;;5009331;28;20197;-76
2021/09/13 11:34:41;;;;;;;3.83;3.72;;;40.40;38.50;;;;;;5006758;28;20616;-76
2021/09/13 11:37:14;;;;;;;4.45;4.25;;;40.40;39.10;;;;;;5008206;28;20184;-75
2021/09/13 11:39:48;;;;;;;4.22;4.13;;;40.30;38.90;;;;;;5008950;28;20215;-75
2021/09/13 11:42:22;;;;;;;4.35;4.07;;;40.30;39.10;;;;;;5011591;28;20249;-75
2021/09/13 11:44:56;;;;;;;4.65;4.40;;;40.30;39.10;;;;;;5011327;28;20191;-75
2021/09/13 11:47:28;;;;;;;4.55;4.28;;;39.90;39.60;;;;;;5010882;28;20721;-76
2021/09/13 11:49:58;;;;;;;4.28;3.97;;;39.70;39.50;;;;;;5016408;28;20192;-75
2021/09/13 11:52:29;;;;;;;4.05;3.83;;;39.80;40.20;;;;;;5012261;28;20181;-75
2021/09/13 11:55:06;;;;;;;4.55;4.25;;;40.20;39.60;;;;;;5013084;28;20585;-75
2021/09/13 11:57:41;;;;;;;4.28;4.07;;;40.40;38.30;;;;;;5009271;28;20670;-75
2021/09/13 12:00:20;;;;;;;4.53;4.32;;;40.80;38.80;;;;;;5014990;28;20190;-74
2021/09/13 12:02:51;;;;;;;5.78;4.53;;;41.10;37.80;;;;;;5009629;28;20176;-75
2021/09/13 12:05:28;;;;;;;4.50;4.28;;;41.50;38.80;;;;;;5014647;28;20184;-77
2021/09/13 12:07:56;;;;;;;4.38;4.03;;;41.60;38.20;;;;;;5006463;28;20192;-74
2021/09/13 12:10:27;;;;;;;5.10;4.80;;;41.80;39.10;;;;;;5002007;28;20878;-75
2021/09/13 12:12:56;;;;;;;5.80;4.40;;;41.70;38.20;;;;;;5003162;28;20599;-75
2021/09/13 12:15:26;;;;;;;4.78;4.38;;;41.70;38.80;;;;;;5008695;28;20190;-75
2021/09/13 12:17:54;;;;;;;4.60;4.40;;;41.80;37.40;;;;;;5007194;28;20203;-74
2021/09/13 12:20:25;;;;;;;4.70;4.35;;;41.70;37.70;;;;;;5014024;28;20188;-75
2021/09/13 12:23:11;;;;;;;3.88;3.67;;;41.50;38.20;;;;;;5006250;28;20214;-74
2021/09/13 12:25:40;;;;;;;4.65;4.45;;;41.50;38.10;;;;;;5010857;28;20233;-74
2021/09/13 12:28:06;;;;;;;8.93;3.95;;;41.80;38.80;;;;;;5011045;28;20925;-75
2021/09/13 12:30:38;;;;;;;4.47;4.13;;;42.10;37.30;;;;;;5007169;28;20191;-77
2021/09/13 12:33:08;;;;;;;4.97;4.55;;;42.40;37.20;;;;;;5012379;28;20212;-75
2021/09/13 12:35:46;;;;;;;4.55;4.35;;;42.60;37.20;;;;;;5007992;28;20238;-75
2021/09/13 12:38:21;;;;;;;4.90;3.95;;;42.90;37.40;;;;;;5012175;28;20191;-75
2021/09/13 12:40:46;;;;;;;4.68;4.50;;;43.20;36.70;;;;;;5012550;28;20182;-76
2021/09/13 12:43:17;;;;;;;4.10;3.90;;;43.30;37.60;;;;;;5013211;28;20184;-76
2021/09/13 12:45:43;;;;;;;6.68;4.22;;;43.40;37.60;;;;;;5006500;28;20299;-76
2021/09/13 12:48:09;;;;;;;4.22;3.88;;;43.40;36.50;;;;;;5008897;28;20761;-75
2021/09/13 12:50:38;;;;;;;3.70;3.50;;;43.30;36.80;;;;;;5012793;28;20188;-75
2021/09/13 12:53:17;;;;;;;3.95;3.72;;;43.00;35.40;;;;;;5010793;28;20294;-76
2021/09/13 12:55:44;;;;;;;5.72;3.92;;;42.30;36.90;;;;;;5011615;28;20184;-76
2021/09/13 12:58:43;;;;;;;4.20;4.00;;;41.70;37.20;;;;;;5013691;28;20180;-76
2021/09/13 13:01:26;;;;;;;4.65;4.55;;;40.90;36.50;;;;;;5008618;28;20203;-75